createdAt,value
2018-03-23T00:00:47.348Z,30.90
2018-03-23T00:03:15.546Z,28.60
2018-03-23T00:05:43.038Z,32.57
2018-03-23T00:08:10.442Z,30.20
2018-03-23T00:10:38.662Z,35.97
2018-03-23T00:13:06.070Z,34.60
2018-03-23T00:15:33.485Z,32.27
2018-03-23T00:18:00.903Z,32.70
2018-03-23T00:20:28.326Z,32.40
2018-03-23T00:22:55.739Z,33.60
2018-03-23T00:25:23.154Z,32.93
2018-03-23T00:27:50.642Z,36.67
2018-03-23T00:30:18.090Z,31.63
2018-03-23T00:32:46.290Z,35.53
2018-03-23T00:35:13.755Z,32.23
2018-03-23T00:37:41.231Z,32.80
2018-03-23T00:40:08.645Z,31.73
2018-03-23T00:42:36.053Z,31.30
2018-03-23T00:45:03.472Z,32.27
2018-03-23T00:47:30.913Z,34.73
2018-03-23T00:49:58.383Z,32.80
2018-03-23T00:52:25.797Z,28.03
2018-03-23T00:54:53.214Z,30.90
2018-03-23T00:57:27.252Z,30.17
2018-03-23T00:59:54.666Z,30.83
2018-03-23T01:02:22.865Z,30.97
2018-03-23T01:04:51.042Z,30.23
2018-03-23T01:07:19.306Z,29.83
2018-03-23T01:09:46.724Z,28.50
2018-03-23T01:12:14.158Z,30.13
2018-03-23T01:14:41.660Z,31.33
2018-03-23T01:17:09.121Z,32.53
2018-03-23T01:19:36.612Z,31.33
2018-03-23T01:22:04.034Z,29.70
2018-03-23T01:24:32.218Z,31.30
2018-03-23T01:26:59.724Z,29.10
2018-03-23T01:29:27.209Z,28.33
2018-03-23T01:31:54.670Z,36.80
2018-03-23T01:34:22.094Z,36.90
2018-03-23T01:36:50.297Z,30.83
2018-03-23T01:39:17.718Z,27.97
2018-03-23T01:41:45.159Z,29.43
2018-03-23T01:44:12.579Z,27.37
2018-03-23T01:46:39.992Z,26.37
2018-03-23T01:49:07.408Z,26.03
2018-03-23T01:51:34.825Z,27.70
2018-03-23T01:54:02.286Z,31.37
2018-03-23T01:56:29.710Z,24.87
2018-03-23T01:58:57.253Z,24.80
2018-03-23T02:01:24.673Z,29.03
2018-03-23T02:03:52.864Z,27.37
2018-03-23T02:06:21.093Z,28.70
2018-03-23T02:08:48.547Z,33.33
2018-03-23T02:11:15.953Z,31.77
2018-03-23T02:13:43.386Z,32.27
2018-03-23T02:16:10.846Z,27.83
2018-03-23T02:18:38.277Z,25.20
2018-03-23T02:21:06.462Z,25.93
2018-03-23T02:23:35.406Z,24.63
2018-03-23T02:26:02.868Z,29.03
2018-03-23T02:28:30.296Z,23.47
2018-03-23T02:30:58.482Z,18.47
2018-03-23T02:33:25.898Z,13.23
2018-03-23T02:35:53.314Z,11.97
2018-03-23T02:38:20.719Z,11.40
2018-03-23T02:40:48.135Z,12.07
2018-03-23T02:43:15.559Z,9.03
2018-03-23T02:45:42.984Z,10.15
2018-03-23T02:48:10.388Z,13.20
2018-03-23T02:50:37.800Z,10.33
2018-03-23T02:53:05.213Z,12.20
2018-03-23T02:55:33.395Z,12.20
2018-03-23T02:58:01.594Z,12.13
2018-03-23T03:00:29.022Z,14.13
2018-03-23T03:02:56.475Z,10.53
2018-03-23T03:05:23.923Z,9.80
2018-03-23T03:07:51.386Z,12.27
2018-03-23T03:10:18.843Z,13.73
2018-03-23T03:12:46.306Z,13.00
2018-03-23T03:15:13.789Z,11.57
2018-03-23T03:17:41.199Z,14.53
2018-03-23T03:20:08.706Z,13.23
2018-03-23T03:22:36.178Z,14.00
2018-03-23T03:25:03.614Z,16.40
2018-03-23T03:27:31.022Z,14.60
2018-03-23T03:29:58.447Z,15.03
2018-03-23T03:32:25.862Z,13.00
2018-03-23T03:34:53.323Z,13.33
2018-03-23T03:37:20.752Z,14.63
2018-03-23T03:39:48.159Z,14.77
2018-03-23T03:42:15.626Z,15.47
2018-03-23T03:44:43.096Z,13.82
2018-03-23T03:47:10.525Z,14.50
2018-03-23T03:49:38.036Z,12.37
2018-03-23T03:52:06.893Z,12.00
2018-03-23T03:54:34.417Z,12.70
2018-03-23T03:57:01.823Z,16.43
2018-03-23T03:59:29.347Z,13.60
2018-03-23T04:01:56.753Z,15.83
2018-03-23T04:04:24.188Z,14.93
2018-03-23T04:06:51.621Z,15.43
2018-03-23T04:09:19.823Z,18.93
2018-03-23T04:11:47.298Z,12.93
2018-03-23T04:14:14.705Z,15.80
2018-03-23T04:16:42.911Z,13.40
2018-03-23T04:19:10.386Z,14.27
2018-03-23T04:21:37.808Z,17.40
2018-03-23T04:24:06.951Z,16.80
2018-03-23T04:26:34.365Z,14.60
2018-03-23T04:29:01.794Z,15.67
2018-03-23T04:31:29.222Z,20.00
2018-03-23T04:33:57.404Z,17.00
2018-03-23T04:36:24.814Z,12.83
2018-03-23T04:38:52.248Z,14.47
2018-03-23T04:41:20.440Z,12.43
2018-03-23T04:43:48.642Z,14.87
2018-03-23T04:46:16.066Z,16.97
2018-03-23T04:48:43.482Z,22.33
2018-03-23T04:51:10.909Z,16.20
2018-03-23T04:53:39.140Z,14.80
2018-03-23T04:56:07.330Z,16.50
2018-03-23T04:58:34.801Z,16.43
2018-03-23T05:01:02.272Z,13.90
2018-03-23T05:03:29.698Z,19.70
2018-03-23T05:05:57.915Z,20.17
2018-03-23T05:08:25.336Z,19.50
2018-03-23T05:10:52.874Z,17.87
2018-03-23T05:13:20.294Z,20.23
2018-03-23T05:15:48.508Z,25.70
2018-03-23T05:18:15.986Z,19.87
2018-03-23T05:20:43.977Z,21.20
2018-03-23T05:23:11.391Z,25.00
2018-03-23T05:25:39.608Z,23.43
2018-03-23T05:28:08.720Z,20.10
2018-03-23T05:30:37.817Z,26.10
2018-03-23T05:33:05.255Z,20.77
2018-03-23T05:35:32.666Z,25.83
2018-03-23T05:38:00.148Z,23.58
2018-03-23T05:40:27.553Z,26.37
2018-03-23T05:42:54.982Z,24.57
2018-03-23T05:45:22.442Z,23.43
2018-03-23T05:47:49.874Z,26.80
2018-03-23T05:50:18.070Z,23.12
2018-03-23T05:52:46.262Z,22.67
2018-03-23T05:55:13.697Z,22.27
2018-03-23T05:57:41.115Z,23.37
2018-03-23T06:00:08.538Z,22.90
2018-03-23T06:02:36.051Z,23.53
2018-03-23T06:05:03.480Z,19.95
2018-03-23T06:07:30.904Z,25.50
2018-03-23T06:09:58.343Z,17.57
2018-03-23T06:12:25.778Z,20.27
2018-03-23T06:14:53.205Z,21.80
2018-03-23T06:17:20.622Z,21.03
2018-03-23T06:19:48.850Z,20.13
2018-03-23T06:22:16.286Z,20.97
2018-03-23T06:24:43.694Z,23.03
2018-03-23T06:27:11.109Z,27.60
2018-03-23T06:29:39.944Z,27.62
2018-03-23T06:32:07.376Z,23.10
2018-03-23T06:34:34.783Z,34.47
2018-03-23T06:37:02.208Z,24.30
2018-03-23T06:39:29.630Z,24.97
2018-03-23T06:41:57.082Z,28.07
2018-03-23T06:44:24.558Z,22.90
2018-03-23T06:46:52.012Z,24.30
2018-03-23T06:49:19.451Z,27.43
2018-03-23T06:51:46.871Z,25.97
2018-03-23T06:54:14.328Z,23.00
2018-03-23T06:56:41.802Z,24.83
2018-03-23T06:59:10.365Z,23.87
2018-03-23T07:01:39.480Z,26.40
2018-03-23T07:04:07.661Z,24.53
2018-03-23T07:06:35.846Z,24.43
2018-03-23T07:09:03.269Z,28.50
2018-03-23T07:11:30.699Z,24.80
2018-03-23T07:13:58.890Z,24.23
2018-03-23T07:16:27.067Z,24.53
2018-03-23T07:18:54.605Z,25.90
2018-03-23T07:21:22.030Z,29.13
2018-03-23T07:23:49.453Z,23.27
2018-03-23T07:26:16.882Z,19.97
2018-03-23T07:28:44.306Z,26.10
2018-03-23T07:31:11.730Z,23.90
2018-03-23T07:33:39.147Z,19.43
2018-03-23T07:36:06.625Z,22.27
2018-03-23T07:38:34.056Z,19.20
2018-03-23T07:41:01.575Z,20.77
2018-03-23T07:43:28.995Z,21.50
2018-03-23T07:45:56.425Z,21.80
2018-03-23T07:48:23.884Z,22.73
2018-03-23T07:50:51.343Z,22.70
2018-03-23T07:53:18.754Z,26.37
2018-03-23T07:55:46.178Z,36.10
2018-03-23T07:58:13.638Z,26.37
2018-03-23T08:00:41.074Z,37.10
2018-03-23T08:03:08.583Z,28.83
2018-03-23T08:05:36.001Z,29.77
2018-03-23T08:08:03.418Z,30.33
2018-03-23T08:10:30.825Z,28.20
2018-03-23T08:12:58.255Z,32.63
2018-03-23T08:15:25.679Z,29.43
2018-03-23T08:17:53.107Z,29.70
2018-03-23T08:20:20.534Z,29.37
2018-03-23T08:22:48.718Z,32.30
2018-03-23T08:25:16.895Z,30.80
2018-03-23T08:27:45.103Z,35.67
2018-03-23T08:30:12.602Z,32.67
2018-03-23T08:32:40.033Z,31.37
2018-03-23T08:35:08.207Z,40.60
2018-03-23T08:37:36.426Z,36.27
2018-03-23T08:40:03.898Z,31.27
2018-03-23T08:42:31.326Z,31.23
2018-03-23T08:44:58.797Z,31.27
2018-03-23T08:47:26.207Z,30.77
2018-03-23T08:49:53.693Z,32.53
2018-03-23T08:52:21.250Z,34.30
2018-03-23T08:54:48.665Z,40.80
2018-03-23T08:57:16.075Z,46.23
2018-03-23T08:59:43.515Z,34.33
2018-03-23T09:02:12.630Z,22.83
2018-03-23T09:04:40.817Z,27.70
2018-03-23T09:07:09.035Z,27.53
2018-03-23T09:09:36.473Z,26.30
2018-03-23T09:12:03.914Z,27.90
2018-03-23T09:14:31.442Z,24.03
2018-03-23T09:16:58.858Z,24.73
2018-03-23T09:19:26.356Z,25.60
2018-03-23T09:21:54.654Z,20.57
2018-03-23T09:24:22.094Z,27.77
2018-03-23T09:26:50.266Z,21.17
2018-03-23T09:29:17.704Z,21.43
2018-03-23T09:31:45.176Z,30.30
2018-03-23T09:34:12.583Z,21.33
2018-03-23T09:36:40.005Z,18.10
2018-03-23T09:39:07.416Z,19.50
2018-03-23T09:41:34.815Z,22.67
2018-03-23T09:44:02.240Z,31.13
2018-03-23T09:46:29.675Z,20.27
2018-03-23T09:48:57.101Z,18.40
2018-03-23T09:51:24.750Z,21.83
2018-03-23T09:53:52.189Z,17.47
2018-03-23T09:56:19.602Z,15.77
2018-03-23T09:58:47.036Z,14.80
2018-03-23T10:01:14.447Z,16.77
2018-03-23T10:03:43.631Z,17.67
2018-03-23T10:06:11.762Z,16.37
2018-03-23T10:08:39.272Z,14.10
2018-03-23T10:11:06.723Z,15.30
2018-03-23T10:13:34.142Z,18.73
2018-03-23T10:16:01.539Z,21.80
2018-03-23T10:18:28.967Z,20.53
2018-03-23T10:20:56.424Z,15.77
2018-03-23T10:23:23.858Z,16.23
2018-03-23T10:25:51.286Z,22.37
2018-03-23T10:28:18.690Z,17.03
2018-03-23T10:30:46.147Z,11.60
2018-03-23T10:33:13.739Z,15.93
2018-03-23T10:35:41.198Z,15.77
2018-03-23T10:38:08.608Z,10.70
2018-03-23T10:40:36.032Z,13.27
2018-03-23T10:43:03.462Z,15.73
2018-03-23T10:45:30.870Z,14.67
2018-03-23T10:47:58.294Z,12.47
2018-03-23T10:50:25.714Z,17.10
2018-03-23T10:52:53.168Z,15.10
2018-03-23T10:55:20.590Z,13.50
2018-03-23T10:57:48.016Z,12.00
2018-03-23T11:00:15.432Z,13.90
2018-03-23T11:02:49.513Z,13.50
2018-03-23T11:05:16.941Z,11.13
2018-03-23T11:07:45.141Z,10.97
2018-03-23T11:10:12.575Z,14.30
2018-03-23T11:12:40.003Z,14.00
2018-03-23T11:15:07.470Z,11.10
2018-03-23T11:17:34.933Z,15.07
2018-03-23T11:20:02.398Z,15.23
2018-03-23T11:22:29.836Z,15.13
2018-03-23T11:24:58.033Z,10.10
2018-03-23T11:27:26.211Z,13.20
2018-03-23T11:29:54.523Z,15.43
2018-03-23T11:32:22.690Z,11.30
2018-03-23T11:34:50.893Z,11.50
2018-03-23T11:37:18.370Z,10.70
2018-03-23T11:39:45.775Z,12.20
2018-03-23T11:42:15.633Z,12.50
2018-03-23T11:44:44.738Z,17.30
2018-03-23T11:47:12.937Z,15.07
2018-03-23T11:49:40.419Z,10.63
2018-03-23T11:52:08.615Z,12.70
2018-03-23T11:54:36.030Z,9.57
2018-03-23T11:57:03.472Z,14.07
2018-03-23T11:59:31.013Z,18.63
2018-03-23T12:01:59.267Z,15.17
2018-03-23T12:04:26.613Z,10.00
2018-03-23T12:06:54.034Z,12.43
2018-03-23T12:09:21.503Z,12.00
2018-03-23T12:11:48.989Z,12.63
2018-03-23T12:14:16.392Z,14.10
2018-03-23T12:16:44.723Z,11.80
2018-03-23T12:19:12.216Z,15.70
2018-03-23T12:21:39.660Z,14.60
2018-03-23T12:24:07.066Z,16.83
2018-03-23T12:26:34.490Z,16.83
2018-03-23T12:29:01.925Z,21.47
2018-03-23T12:31:29.439Z,21.00
2018-03-23T12:33:57.601Z,12.00
2018-03-23T12:36:25.777Z,18.33
2018-03-23T12:38:54.008Z,13.87
2018-03-23T12:41:21.441Z,14.90
2018-03-23T12:43:49.634Z,14.40
2018-03-23T12:46:17.810Z,11.00
2018-03-23T12:48:46.016Z,16.87
2018-03-23T12:51:15.126Z,13.00
2018-03-23T12:53:42.538Z,15.53
2018-03-23T12:56:09.970Z,18.93
2018-03-23T12:58:37.447Z,16.47
2018-03-23T13:01:04.865Z,16.12
2018-03-23T13:03:32.376Z,15.43
2018-03-23T13:05:59.790Z,18.50
2018-03-23T13:08:27.301Z,21.23
2018-03-23T13:10:54.781Z,19.23
2018-03-23T13:13:22.237Z,24.00
2018-03-23T13:15:49.648Z,18.97
2018-03-23T13:18:17.072Z,19.33
2018-03-23T13:20:46.180Z,15.97
2018-03-23T13:23:13.599Z,21.97
2018-03-23T13:25:41.027Z,24.00
2018-03-23T13:28:08.502Z,20.43
2018-03-23T13:30:35.935Z,24.87
2018-03-23T13:33:03.431Z,19.10
2018-03-23T13:35:30.906Z,27.50
2018-03-23T13:37:58.326Z,23.50
2018-03-23T13:40:25.757Z,23.27
2018-03-23T13:42:53.209Z,29.53
2018-03-23T13:45:20.701Z,22.47
2018-03-23T13:47:48.122Z,22.93
2018-03-23T13:50:16.963Z,21.48
2018-03-23T13:52:46.034Z,25.37
2018-03-23T13:55:14.236Z,21.00
2018-03-23T13:57:41.666Z,21.43
2018-03-23T14:03:10.808Z,28.27
2018-03-23T14:05:38.328Z,24.57
2018-03-23T14:08:05.798Z,26.30
2018-03-23T14:10:33.223Z,20.30
2018-03-23T14:13:00.711Z,21.13
2018-03-23T14:15:28.138Z,27.53
2018-03-23T14:17:55.563Z,22.40
2018-03-23T14:20:23.008Z,22.67
2018-03-23T14:22:51.235Z,21.50
2018-03-23T14:25:18.683Z,20.97
2018-03-23T14:27:47.468Z,22.98
2018-03-23T14:30:16.595Z,31.80
2018-03-23T14:32:44.021Z,29.00
2018-03-23T14:35:11.474Z,28.90
2018-03-23T14:37:38.891Z,27.43
2018-03-23T14:40:06.367Z,26.20
2018-03-23T14:42:33.882Z,31.03
2018-03-23T14:45:01.310Z,34.60
2018-03-23T14:47:28.741Z,30.13
2018-03-23T14:49:56.144Z,29.57
2018-03-23T14:52:23.599Z,31.53
2018-03-23T14:54:51.858Z,27.07
2018-03-23T14:57:19.291Z,26.03
2018-03-23T14:59:47.940Z,31.90
2018-03-23T15:02:17.047Z,28.80
2018-03-23T15:04:45.261Z,32.63
2018-03-23T15:07:12.703Z,26.40
2018-03-23T15:09:40.908Z,28.37
2018-03-23T15:12:08.336Z,36.90
2018-03-23T15:14:35.843Z,35.60
2018-03-23T15:17:03.280Z,32.23
2018-03-23T15:19:30.706Z,30.93
2018-03-23T15:21:58.123Z,30.63
2018-03-23T15:24:26.362Z,29.10
2018-03-23T15:26:53.810Z,28.60
2018-03-23T15:29:21.264Z,28.77
2018-03-23T15:31:48.743Z,28.33
2018-03-23T15:34:16.164Z,31.77
2018-03-23T15:36:43.587Z,31.07
2018-03-23T15:39:11.007Z,31.20
2018-03-23T15:41:38.446Z,30.07
2018-03-23T15:44:05.890Z,33.60
2018-03-23T15:46:34.079Z,36.43
2018-03-23T15:49:01.551Z,33.93
2018-03-23T15:51:29.016Z,30.17
2018-03-23T15:53:56.447Z,32.63
2018-03-23T15:56:24.626Z,34.77
2018-03-23T15:58:53.027Z,38.50
2018-03-23T16:01:21.219Z,32.50
2018-03-23T16:03:49.449Z,44.07
2018-03-23T16:06:16.849Z,36.40
2018-03-23T16:08:44.267Z,39.07
2018-03-23T16:11:11.725Z,36.80
2018-03-23T16:13:39.159Z,35.93
2018-03-23T16:16:07.362Z,36.07
2018-03-23T16:18:35.576Z,33.63
2018-03-23T16:21:02.986Z,36.17
2018-03-23T16:23:30.536Z,34.83
2018-03-23T16:25:57.958Z,33.30
2018-03-23T16:28:25.378Z,32.30
2018-03-23T16:30:52.815Z,41.50
2018-03-23T16:33:20.298Z,40.77
2018-03-23T16:35:48.655Z,34.97
2018-03-23T16:38:16.085Z,35.30
2018-03-23T16:40:44.013Z,33.10
2018-03-23T16:43:11.439Z,34.17
2018-03-23T16:45:38.847Z,36.20
2018-03-23T16:48:06.264Z,32.23
2018-03-23T16:50:33.698Z,34.07
2018-03-23T16:53:01.195Z,33.00
2018-03-23T16:55:28.647Z,31.00
2018-03-23T16:57:56.089Z,29.33
2018-03-23T17:00:23.693Z,37.80
2018-03-23T17:02:51.099Z,31.17
2018-03-23T17:05:19.903Z,30.20
2018-03-23T17:07:49.015Z,35.70
2018-03-23T17:10:16.482Z,36.10
2018-03-23T17:12:43.898Z,40.87
2018-03-23T17:15:12.115Z,37.60
2018-03-23T17:17:39.533Z,35.37
2018-03-23T17:20:07.121Z,35.60
2018-03-23T17:22:34.532Z,39.05
2018-03-23T17:25:01.997Z,38.50
2018-03-23T17:27:29.402Z,35.43
2018-03-23T17:29:56.823Z,36.47
2018-03-23T17:32:24.253Z,35.07
2018-03-23T17:34:51.778Z,35.97
2018-03-23T17:37:20.354Z,33.17
2018-03-23T17:39:47.830Z,38.30
2018-03-23T17:42:15.311Z,36.47
2018-03-23T17:44:42.728Z,44.60
2018-03-23T17:47:10.236Z,39.20
2018-03-23T17:49:37.658Z,35.33
2018-03-23T17:52:05.081Z,34.27
2018-03-23T17:54:32.485Z,36.67
2018-03-23T17:56:59.915Z,39.50
2018-03-23T17:59:27.318Z,39.07
2018-03-23T18:01:54.755Z,37.83
2018-03-23T18:04:22.208Z,39.03
2018-03-23T18:06:50.698Z,37.67
2018-03-23T18:09:18.118Z,39.47
2018-03-23T18:11:45.570Z,40.20
2018-03-23T18:14:13.028Z,35.13
2018-03-23T18:16:40.407Z,35.03
2018-03-23T18:19:07.862Z,39.20
2018-03-23T18:21:35.283Z,45.53
2018-03-23T18:24:02.690Z,43.20
2018-03-23T18:26:30.155Z,37.53
2018-03-23T18:28:57.625Z,42.00
2018-03-23T18:31:25.090Z,44.23
2018-03-23T18:33:53.256Z,40.53
2018-03-23T18:36:21.459Z,40.30
2018-03-23T18:38:48.864Z,35.63
2018-03-23T18:41:16.287Z,41.50
2018-03-23T18:43:43.694Z,38.13
2018-03-23T18:46:11.154Z,42.73
2018-03-23T18:48:38.632Z,41.37
2018-03-23T18:51:06.090Z,41.63
2018-03-23T18:53:33.569Z,44.87
2018-03-23T18:56:01.692Z,41.57
2018-03-23T18:58:29.128Z,45.13
2018-03-23T19:00:56.590Z,47.80
2018-03-23T19:03:24.002Z,63.07
2018-03-23T19:05:52.233Z,47.07
2018-03-23T19:08:20.614Z,47.60
2018-03-23T19:10:48.039Z,47.40
2018-03-23T19:13:15.478Z,44.50
2018-03-23T19:15:42.915Z,47.77
2018-03-23T19:18:10.323Z,48.57
2018-03-23T19:20:37.751Z,42.83
2018-03-23T19:23:05.256Z,53.43
2018-03-23T19:25:32.665Z,46.27
2018-03-23T19:28:00.865Z,46.35
2018-03-23T19:30:28.387Z,42.93
2018-03-23T19:32:55.816Z,46.23
2018-03-23T19:35:23.245Z,45.43
2018-03-23T19:37:51.886Z,44.58
2018-03-23T19:40:19.290Z,45.23
2018-03-23T19:42:46.860Z,43.27
2018-03-23T19:45:14.337Z,45.50
2018-03-23T19:47:41.753Z,50.53
2018-03-23T19:50:09.179Z,47.80
2018-03-23T19:52:36.593Z,47.50
2018-03-23T19:55:04.028Z,48.93
2018-03-23T19:57:32.222Z,50.03
2018-03-23T20:00:00.399Z,52.50
2018-03-23T20:02:28.571Z,43.97
2018-03-23T20:04:56.002Z,49.23
2018-03-23T20:07:23.429Z,51.50
2018-03-23T20:09:52.317Z,48.92
2018-03-23T20:12:19.729Z,47.23
2018-03-23T20:14:47.186Z,55.83
2018-03-23T20:17:14.627Z,54.27
2018-03-23T20:19:42.835Z,58.47
2018-03-23T20:22:11.022Z,48.83
2018-03-23T20:24:38.490Z,58.20
2018-03-23T20:27:11.642Z,52.50
2018-03-23T20:29:39.097Z,50.50
2018-03-23T20:32:12.110Z,49.03
2018-03-23T20:34:40.342Z,52.73
2018-03-23T20:37:07.813Z,53.43
2018-03-23T20:39:35.291Z,55.63
2018-03-23T20:42:02.706Z,47.27
2018-03-23T20:44:30.237Z,58.13
2018-03-23T20:46:57.711Z,48.80
2018-03-23T20:49:25.150Z,55.43
2018-03-23T20:51:52.538Z,49.50
2018-03-23T20:54:19.987Z,48.30
2018-03-23T20:56:48.185Z,53.70
2018-03-23T20:59:15.617Z,48.27
2018-03-23T21:01:43.124Z,50.33
2018-03-23T21:04:11.291Z,49.67
2018-03-23T21:06:39.504Z,51.30
2018-03-23T21:09:06.918Z,54.33
2018-03-23T21:11:34.343Z,50.17
2018-03-23T21:14:01.770Z,54.57
2018-03-23T21:16:29.963Z,54.57
2018-03-23T21:18:57.385Z,54.93
2018-03-23T21:21:24.843Z,55.37
2018-03-23T21:23:53.256Z,55.28
2018-03-23T21:26:20.746Z,50.00
2018-03-23T21:28:48.214Z,49.60
2018-03-23T21:31:15.639Z,52.27
2018-03-23T21:33:43.836Z,52.87
2018-03-23T21:36:12.034Z,51.00
2018-03-23T21:38:39.540Z,52.67
2018-03-23T21:41:07.057Z,60.90
2018-03-23T21:43:35.374Z,54.33
2018-03-23T21:46:02.794Z,69.33
2018-03-23T21:48:30.306Z,57.93
2018-03-23T21:50:57.779Z,54.60
2018-03-23T21:53:25.198Z,53.23
2018-03-23T21:55:53.702Z,50.75
2018-03-23T21:58:21.255Z,57.93
2018-03-23T22:00:48.673Z,53.03
2018-03-23T22:03:16.094Z,53.67
2018-03-23T22:05:44.342Z,48.60
2018-03-23T22:08:11.767Z,54.50
2018-03-23T22:10:40.007Z,54.33
2018-03-23T22:13:07.471Z,52.00
2018-03-23T22:15:34.925Z,51.13
2018-03-23T22:18:02.350Z,50.47
2018-03-23T22:20:29.808Z,49.83
2018-03-23T22:22:57.243Z,44.80
2018-03-23T22:25:24.658Z,57.07
2018-03-23T22:27:52.174Z,50.80
2018-03-23T22:30:19.589Z,47.70
2018-03-23T22:32:47.099Z,47.20
2018-03-23T22:35:14.571Z,56.97
2018-03-23T22:37:42.040Z,48.77
2018-03-23T22:40:09.471Z,54.33
2018-03-23T22:42:36.910Z,52.43
2018-03-23T22:45:04.362Z,50.17
2018-03-23T22:47:31.777Z,55.60
2018-03-23T22:49:59.959Z,57.28
2018-03-23T22:52:27.470Z,52.80
2018-03-23T22:54:54.900Z,52.00
2018-03-23T22:57:22.322Z,55.13
2018-03-23T22:59:49.755Z,52.90
2018-03-23T23:02:17.918Z,63.70
2018-03-23T23:04:45.352Z,53.30
2018-03-23T23:07:12.796Z,51.73
2018-03-23T23:09:40.278Z,56.27
2018-03-23T23:12:07.710Z,47.93
2018-03-23T23:14:35.898Z,53.43
2018-03-23T23:17:04.102Z,50.50
2018-03-23T23:19:31.514Z,51.23
2018-03-23T23:21:59.039Z,81.80
2018-03-23T23:24:26.454Z,69.07
2018-03-23T23:26:55.057Z,61.37
2018-03-23T23:29:22.468Z,56.47
2018-03-23T23:31:49.899Z,54.33
2018-03-23T23:34:17.427Z,54.93
2018-03-23T23:36:44.839Z,56.40
2018-03-23T23:39:12.265Z,52.10
2018-03-23T23:41:39.737Z,58.07
2018-03-23T23:44:07.313Z,53.53
2018-03-23T23:46:34.769Z,54.60
2018-03-23T23:49:02.239Z,62.73
2018-03-23T23:51:29.658Z,52.23
2018-03-23T23:53:57.875Z,55.10
2018-03-23T23:56:25.300Z,54.80
2018-03-23T23:58:52.814Z,61.37
